Wetterdaten: Sonntag, 22.07.2012
Datum Zeit Temperatur Luftfeuchte Regen Wind Richtung Richtung Taupunkt Windchill Windben
22.07.2012 00:00 9,8 C 95 % 0,0 l/m 0,0 km/h (0 Bft) W-SW 247 9,0 C 9,5 C 0,0 km/h (0 Bft)
22.07.2012 00:05 9,8 C 95 % 0,0 l/m 0,0 km/h (0 Bft) N-NW 337 9,0 C 9,6 C 0,0 km/h (0 Bft)
22.07.2012 00:10 9,8 C 95 % 0,0 l/m 0,0 km/h (0 Bft) NO 45 9,0 C 9,6 C 0,0 km/h (0 Bft)
22.07.2012 00:15 9,8 C 95 % 0,0 l/m 0,0 km/h (0 Bft) NO 45 9,0 C 9,6 C 1,6 km/h (1 Bft)
22.07.2012 00:20 9,8 C 95 % 0,0 l/m 0,2 km/h (0 Bft) N 360 9,0 C 9,6 C 1,6 km/h (1 Bft)
22.07.2012 00:25 9,8 C 95 % 0,0 l/m 0,3 km/h (0 Bft) N-NW 337 9,0 C 9,7 C 0,0 km/h (0 Bft)
22.07.2012 00:30 9,8 C 95 % 0,0 l/m 0,2 km/h (0 Bft) N 360 9,0 C 9,6 C 1,9 km/h (1 Bft)
22.07.2012 00:35 9,8 C 95 % 0,0 l/m 0,0 km/h (0 Bft) N-NW 337 9,0 C 9,6 C 0,0 km/h (0 Bft)
22.07.2012 00:40 9,7 C 95 % 0,0 l/m 0,0 km/h (0 Bft) NO 45 8,9 C 9,5 C 0,0 km/h (0 Bft)
22.07.2012 00:45 9,7 C 95 % 0,0 l/m 0,0 km/h (0 Bft) NO 45 8,9 C 9,4 C 0,0 km/h (0 Bft)
22.07.2012 00:50 9,6 C 96 % 0,0 l/m 0,0 km/h (0 Bft) NO 45 9,0 C 9,4 C 0,0 km/h (0 Bft)
22.07.2012 00:55 9,6 C 96 % 0,0 l/m 0,0 km/h (0 Bft) NO 45 9,0 C 9,3 C 0,0 km/h (0 Bft)
22.07.2012 01:00 9,6 C 96 % 0,0 l/m 0,2 km/h (0 Bft) N-NO 22 9,0 C 9,3 C 0,0 km/h (0 Bft)
22.07.2012 01:05 9,4 C 96 % 0,0 l/m 0,2 km/h (0 Bft) W 270 8,8 C 9,2 C 0,0 km/h (0 Bft)
22.07.2012 01:10 9,2 C 95 % 0,0 l/m 0,2 km/h (0 Bft) SO 135 8,4 C 9,1 C 2,3 km/h (1 Bft)
22.07.2012 01:15 9,1 C 95 % 0,0 l/m 0,0 km/h (0 Bft) NO 45 8,3 C 8,8 C 0,0 km/h (0 Bft)
22.07.2012 01:20 8,9 C 96 % 0,0 l/m 0,0 km/h (0 Bft) NO 45 8,3 C 8,7 C 0,0 km/h (0 Bft)
22.07.2012 01:25 8,7 C 96 % 0,0 l/m 0,0 km/h (0 Bft) O-SO 112 8,1 C 8,5 C 0,0 km/h (0 Bft)
22.07.2012 01:30 8,7 C 96 % 0,0 l/m 0,0 km/h (0 Bft) NO 45 8,1 C 8,4 C 0,0 km/h (0 Bft)
22.07.2012 01:35 8,7 C 96 % 0,0 l/m 0,3 km/h (0 Bft) N-NO 22 8,1 C 8,4 C 0,0 km/h (0 Bft)
22.07.2012 01:40 8,7 C 96 % 0,0 l/m 0,3 km/h (0 Bft) N-NO 22 8,1 C 8,4 C 4,3 km/h (1 Bft)
22.07.2012 01:45 8,6 C 96 % 0,0 l/m 0,0 km/h (0 Bft) N 360 8,0 C 8,3 C 0,0 km/h (0 Bft)
22.07.2012 01:50 8,6 C 96 % 0,0 l/m 0,2 km/h (0 Bft) N-NO 22 8,0 C 8,2 C 1,8 km/h (1 Bft)
22.07.2012 01:55 8,6 C 96 % 0,0 l/m 0,6 km/h (0 Bft) N 360 8,0 C 8,3 C 2,4 km/h (1 Bft)
22.07.2012 02:00 8,6 C 96 % 0,0 l/m 0,8 km/h (0 Bft) N-NW 337 8,0 C 8,3 C 0,0 km/h (0 Bft)
22.07.2012 02:05 8,6 C 96 % 0,0 l/m 0,5 km/h (0 Bft) N 360 8,0 C 8,4 C 2,3 km/h (1 Bft)
22.07.2012 02:10 8,7 C 96 % 0,0 l/m 0,6 km/h (0 Bft) N-NO 22 8,1 C 8,4 C 0,0 km/h (0 Bft)
22.07.2012 02:15 8,7 C 96 % 0,0 l/m 1,0 km/h (0 Bft) NO 45 8,1 C 8,4 C 0,0 km/h (0 Bft)
22.07.2012 02:20 8,8 C 96 % 0,0 l/m 1,1 km/h (1 Bft) SW 225 8,2 C 8,5 C 2,7 km/h (1 Bft)
22.07.2012 02:25 8,9 C 96 % 0,0 l/m 1,3 km/h (1 Bft) N-NO 22 8,3 C 8,7 C 0,0 km/h (0 Bft)
22.07.2012 02:30 9,0 C 96 % 0,0 l/m 1,4 km/h (1 Bft) N 360 8,4 C 8,8 C 2,7 km/h (1 Bft)
22.07.2012 02:35 9,1 C 96 % 0,0 l/m 1,4 km/h (1 Bft) N-NO 22 8,5 C 9,0 C 1,8 km/h (1 Bft)
22.07.2012 02:40 9,1 C 95 % 0,0 l/m 1,1 km/h (1 Bft) N-NO 22 8,3 C 9,0 C 0,0 km/h (0 Bft)
22.07.2012 02:45 9,2 C 96 % 0,0 l/m 0,5 km/h (0 Bft) N 360 8,6 C 9,1 C 0,0 km/h (0 Bft)
22.07.2012 02:50 9,2 C 96 % 0,0 l/m 0,3 km/h (0 Bft) N-NO 22 8,6 C 9,1 C 0,0 km/h (0 Bft)
22.07.2012 02:55 9,3 C 96 % 0,0 l/m 0,2 km/h (0 Bft) N-NW 337 8,7 C 9,1 C 0,0 km/h (0 Bft)
22.07.2012 03:00 9,3 C 96 % 0,0 l/m 0,2 km/h (0 Bft) O-SO 112 8,7 C 9,1 C 0,0 km/h (0 Bft)
22.07.2012 03:05 9,4 C 96 % 0,0 l/m 0,0 km/h (0 Bft) NO 45 8,8 C 9,2 C 0,0 km/h (0 Bft)
22.07.2012 03:10 9,4 C 96 % 0,0 l/m 0,2 km/h (0 Bft) N-NO 22 8,8 C 9,2 C 1,6 km/h (1 Bft)
22.07.2012 03:15 9,4 C 96 % 0,0 l/m 0,3 km/h (0 Bft) N-NO 22 8,8 C 9,2 C 0,0 km/h (0 Bft)
22.07.2012 03:20 9,3 C 96 % 0,0 l/m 0,2 km/h (0 Bft) NO 45 8,7 C 9,2 C 0,0 km/h (0 Bft)
22.07.2012 03:25 9,2 C 96 % 0,0 l/m 0,0 km/h (0 Bft) NO 45 8,6 C 9,1 C 0,0 km/h (0 Bft)
22.07.2012 03:30 9,2 C 96 % 0,0 l/m 0,0 km/h (0 Bft) NO 45 8,6 C 9,1 C 0,0 km/h (0 Bft)
22.07.2012 03:35 9,2 C 96 % 0,0 l/m 0,2 km/h (0 Bft) N-NO 22 8,6 C 9,1 C 2,1 km/h (1 Bft)
22.07.2012 03:40 9,3 C 96 % 0,0 l/m 0,2 km/h (0 Bft) N-NO 22 8,7 C 9,1 C 0,0 km/h (0 Bft)
22.07.2012 03:45 9,3 C 96 % 0,0 l/m 0,2 km/h (0 Bft) N-NO 22 8,7 C 9,1 C 1,6 km/h (1 Bft)
22.07.2012 03:50 9,3 C 96 % 0,0 l/m 0,0 km/h (0 Bft) N 360 8,7 C 9,1 C 0,0 km/h (0 Bft)
22.07.2012 03:55 9,2 C 96 % 0,0 l/m 0,0 km/h (0 Bft) W-NW 292 8,6 C 9,1 C 0,0 km/h (0 Bft)
22.07.2012 04:00 9,2 C 96 % 0,0 l/m 0,0 km/h (0 Bft) N-NO 22 8,6 C 9,1 C 0,0 km/h (0 Bft)
22.07.2012 04:05 9,2 C 96 % 0,0 l/m 0,0 km/h (0 Bft) SO 135 8,6 C 9,0 C 0,0 km/h (0 Bft)
22.07.2012 04:10 9,2 C 96 % 0,0 l/m 0,0 km/h (0 Bft) NO 45 8,6 C 9,0 C 0,0 km/h (0 Bft)
22.07.2012 04:15 9,1 C 96 % 0,0 l/m 0,0 km/h (0 Bft) N-NO 22 8,5 C 8,9 C 0,0 km/h (0 Bft)
22.07.2012 04:20 9,1 C 96 % 0,0 l/m 0,0 km/h (0 Bft) NO 45 8,5 C 8,8 C 0,0 km/h (0 Bft)
22.07.2012 04:25 9,1 C 96 % 0,0 l/m 0,0 km/h (0 Bft) NO 45 8,5 C 8,9 C 0,0 km/h (0 Bft)
22.07.2012 04:30 9,1 C 96 % 0,0 l/m 0,0 km/h (0 Bft) N-NO 22 8,5 C 8,9 C 0,0 km/h (0 Bft)
22.07.2012 04:35 9,2 C 96 % 0,0 l/m 0,0 km/h (0 Bft) N 360 8,6 C 9,0 C 0,0 km/h (0 Bft)
22.07.2012 04:40 9,1 C 96 % 0,0 l/m 0,0 km/h (0 Bft) NO 45 8,5 C 9,0 C 0,0 km/h (0 Bft)
22.07.2012 04:45 9,1 C 96 % 0,0 l/m 0,0 km/h (0 Bft) NO 45 8,5 C 8,9 C 0,0 km/h (0 Bft)
22.07.2012 04:50 9,1 C 96 % 0,0 l/m 0,0 km/h (0 Bft) S-SW 202 8,5 C 8,9 C 0,0 km/h (0 Bft)
22.07.2012 04:55 9,1 C 96 % 0,0 l/m 0,0 km/h (0 Bft) NO 45 8,5 C 8,9 C 0,0 km/h (0 Bft)
22.07.2012 05:00 9,1 C 96 % 0,0 l/m 0,0 km/h (0 Bft) N-NO 22 8,5 C 8,9 C 0,0 km/h (0 Bft)
22.07.2012 05:05 9,1 C 96 % 0,0 l/m 0,2 km/h (0 Bft) O-SO 112 8,5 C 8,9 C 1,8 km/h (1 Bft)
22.07.2012 05:10 9,1 C 96 % 0,0 l/m 0,2 km/h (0 Bft) NO 45 8,5 C 8,9 C 0,0 km/h (0 Bft)
22.07.2012 05:15 9,1 C 96 % 0,0 l/m 0,3 km/h (0 Bft) N 360 8,5 C 9,0 C 1,8 km/h (1 Bft)
22.07.2012 05:20 9,1 C 96 % 0,0 l/m 0,3 km/h (0 Bft) N-NO 22 8,5 C 9,0 C 0,0 km/h (0 Bft)
22.07.2012 05:25 9,0 C 96 % 0,0 l/m 0,2 km/h (0 Bft) NO 45 8,4 C 8,9 C 0,0 km/h (0 Bft)
22.07.2012 05:30 9,0 C 96 % 0,0 l/m 0,0 km/h (0 Bft) NO 45 8,4 C 8,9 C 0,0 km/h (0 Bft)
22.07.2012 05:35 9,0 C 96 % 0,0 l/m 0,0 km/h (0 Bft) N-NO 22 8,4 C 8,9 C 0,0 km/h (0 Bft)
22.07.2012 05:40 9,1 C 96 % 0,0 l/m 0,0 km/h (0 Bft) NO 45 8,5 C 8,9 C 0,0 km/h (0 Bft)
22.07.2012 05:45 9,1 C 96 % 0,0 l/m 0,0 km/h (0 Bft) N-NO 22 8,5 C 9,0 C 0,0 km/h (0 Bft)
22.07.2012 05:50 9,1 C 96 % 0,0 l/m 0,0 km/h (0 Bft) N-NO 22 8,5 C 9,0 C 0,0 km/h (0 Bft)
22.07.2012 05:55 9,2 C 96 % 0,0 l/m 0,0 km/h (0 Bft) N 360 8,6 C 9,1 C 0,0 km/h (0 Bft)
22.07.2012 06:00 9,2 C 96 % 0,0 l/m 0,2 km/h (0 Bft) N-NO 22 8,6 C 9,1 C 0,0 km/h (0 Bft)
22.07.2012 06:05 9,2 C 96 % 0,0 l/m 0,2 km/h (0 Bft) O-NO 67 8,6 C 9,1 C 0,0 km/h (0 Bft)
22.07.2012 06:10 9,2 C 96 % 0,0 l/m 0,2 km/h (0 Bft) N 360 8,6 C 9,1 C 0,0 km/h (0 Bft)
22.07.2012 06:15 9,2 C 96 % 0,0 l/m 0,0 km/h (0 Bft) N-NO 22 8,6 C 9,1 C 0,0 km/h (0 Bft)
22.07.2012 06:20 9,3 C 96 % 0,0 l/m 0,0 km/h (0 Bft) N-NO 22 8,7 C 9,1 C 0,0 km/h (0 Bft)
22.07.2012 06:25 9,3 C 96 % 0,0 l/m 0,0 km/h (0 Bft) N-NO 22 8,7 C 9,2 C 0,0 km/h (0 Bft)
22.07.2012 06:30 9,3 C 96 % 0,0 l/m 0,0 km/h (0 Bft) N 360 8,7 C 9,2 C 0,0 km/h (0 Bft)
22.07.2012 06:35 9,3 C 96 % 0,0 l/m 0,0 km/h (0 Bft) N-NO 22 8,7 C 9,2 C 0,0 km/h (0 Bft)
22.07.2012 06:40 9,4 C 96 % 0,0 l/m 0,0 km/h (0 Bft) NO 45 8,8 C 9,3 C 0,0 km/h (0 Bft)
22.07.2012 06:45 9,5 C 96 % 0,0 l/m 0,5 km/h (0 Bft) W-SW 247 8,9 C 9,4 C 2,4 km/h (1 Bft)
22.07.2012 06:50 9,5 C 96 % 0,7 l/m 0,5 km/h (0 Bft) W-SW 247 8,9 C 9,4 C 0,0 km/h (0 Bft)
22.07.2012 06:55 9,5 C 96 % 0,0 l/m 0,3 km/h (0 Bft) S 180 8,9 C 9,3 C 0,0 km/h (0 Bft)
22.07.2012 07:00 9,4 C 96 % 0,0 l/m 0,0 km/h (0 Bft) S 180 8,8 C 9,4 C 0,0 km/h (0 Bft)
22.07.2012 07:05 9,5 C 96 % 0,0 l/m 0,0 km/h (0 Bft) W 270 8,9 C 9,4 C 0,0 km/h (0 Bft)
22.07.2012 07:10 9,6 C 96 % 0,0 l/m 0,0 km/h (0 Bft) W-SW 247 9,0 C 9,5 C 0,0 km/h (0 Bft)
22.07.2012 07:15 9,7 C 96 % 0,0 l/m 0,0 km/h (0 Bft) SO 135 9,1 C 9,5 C 0,0 km/h (0 Bft)
22.07.2012 07:20 9,7 C 96 % 0,0 l/m 0,0 km/h (0 Bft) S-SO 157 9,1 C 9,5 C 0,0 km/h (0 Bft)
22.07.2012 07:25 9,7 C 96 % 0,0 l/m 0,0 km/h (0 Bft) S 180 9,1 C 9,6 C 0,0 km/h (0 Bft)
22.07.2012 07:30 9,7 C 96 % 0,0 l/m 0,0 km/h (0 Bft) SW 225 9,1 C 9,6 C 0,0 km/h (0 Bft)
22.07.2012 07:35 9,7 C 96 % 0,0 l/m 0,3 km/h (0 Bft) SW 225 9,1 C 9,6 C 0,0 km/h (0 Bft)
22.07.2012 07:40 9,7 C 96 % 0,0 l/m 0,6 km/h (0 Bft) S 180 9,1 C 9,6 C 1,9 km/h (1 Bft)
22.07.2012 07:45 9,9 C 96 % 0,0 l/m 1,1 km/h (1 Bft) S 180 9,3 C 9,8 C 2,9 km/h (1 Bft)
22.07.2012 07:50 9,9 C 96 % 0,0 l/m 1,9 km/h (1 Bft) NO 45 9,3 C 10,0 C 1,9 km/h (1 Bft)
22.07.2012 07:55 10,0 C 96 % 0,0 l/m 2,3 km/h (1 Bft) S-SW 202 9,4 C 10,2 C 3,1 km/h (1 Bft)
22.07.2012 08:00 10,0 C 96 % 0,0 l/m 1,8 km/h (1 Bft) W 270 9,4 C 10,3 C 0,0 km/h (0 Bft)
22.07.2012 08:05 10,1 C 96 % 0,0 l/m 1,0 km/h (0 Bft) S-SW 202 9,5 C 10,4 C 2,4 km/h (1 Bft)
22.07.2012 08:10 10,3 C 96 % 0,0 l/m 0,6 km/h (0 Bft) S-SW 202 9,7 C 10,6 C 1,6 km/h (1 Bft)
22.07.2012 08:15 10,5 C 96 % 0,0 l/m 1,3 km/h (1 Bft) S 180 9,9 C 10,9 C 2,3 km/h (1 Bft)
22.07.2012 08:20 10,7 C 96 % 0,0 l/m 1,1 km/h (1 Bft) SW 225 10,1 C 11,1 C 0,0 km/h (0 Bft)
22.07.2012 08:25 10,7 C 96 % 0,0 l/m 1,0 km/h (0 Bft) S-SO 157 10,1 C 11,5 C 0,0 km/h (0 Bft)
22.07.2012 08:30 10,7 C 96 % 0,0 l/m 1,1 km/h (1 Bft) W 270 10,1 C 11,6 C 2,3 km/h (1 Bft)
22.07.2012 08:35 10,7 C 96 % 0,0 l/m 2,1 km/h (1 Bft) W 270 10,1 C 11,7 C 5,8 km/h (2 Bft)
22.07.2012 08:40 10,7 C 96 % 0,0 l/m 2,9 km/h (1 Bft) SW 225 10,1 C 11,7 C 7,4 km/h (2 Bft)
22.07.2012 08:45 10,8 C 96 % 0,0 l/m 3,1 km/h (1 Bft) W 270 10,2 C 11,9 C 3,5 km/h (1 Bft)
22.07.2012 08:50 11,1 C 95 % 0,0 l/m 2,1 km/h (1 Bft) W 270 10,3 C 12,2 C 2,7 km/h (1 Bft)
22.07.2012 08:55 11,5 C 95 % 0,0 l/m 2,6 km/h (1 Bft) W 270 10,7 C 13,4 C 4,3 km/h (1 Bft)
22.07.2012 09:00 11,9 C 95 % 0,0 l/m 2,7 km/h (1 Bft) S 180 11,1 C 13,5 C 4,0 km/h (1 Bft)
22.07.2012 09:05 11,6 C 95 % 0,0 l/m 3,7 km/h (1 Bft) W 270 10,8 C 13,4 C 6,0 km/h (2 Bft)
22.07.2012 09:10 11,3 C 95 % 0,0 l/m 3,9 km/h (1 Bft) W 270 10,5 C 13,0 C 8,7 km/h (2 Bft)
22.07.2012 09:15 11,3 C 94 % 0,0 l/m 3,5 km/h (1 Bft) W-SW 247 10,4 C 12,8 C 2,7 km/h (1 Bft)
22.07.2012 09:20 11,3 C 94 % 0,0 l/m 3,1 km/h (1 Bft) W-NW 292 10,4 C 12,8 C 6,8 km/h (2 Bft)
22.07.2012 09:25 11,1 C 94 % 0,0 l/m 2,9 km/h (1 Bft) W-SW 247 10,2 C 12,5 C 3,4 km/h (1 Bft)
22.07.2012 09:30 11,1 C 94 % 0,0 l/m 3,1 km/h (1 Bft) N-NW 337 10,2 C 12,4 C 2,9 km/h (1 Bft)
22.07.2012 09:35 11,3 C 94 % 0,0 l/m 3,1 km/h (1 Bft) SW 225 10,4 C 12,3 C 4,3 km/h (1 Bft)
22.07.2012 09:40 11,5 C 93 % 0,0 l/m 3,5 km/h (1 Bft) W-SW 247 10,4 C 12,7 C 4,7 km/h (1 Bft)
22.07.2012 09:45 12,3 C 92 % 0,0 l/m 3,5 km/h (1 Bft) W 270 11,0 C 13,3 C 4,3 km/h (1 Bft)
22.07.2012 09:50 14,1 C 88 % 0,0 l/m 2,9 km/h (1 Bft) W 270 12,7 C 14,9 C 5,6 km/h (1 Bft)
22.07.2012 09:55 15,0 C 79 % 0,0 l/m 3,9 km/h (1 Bft) NW 315 11,6 C 16,4 C 4,7 km/h (1 Bft)
22.07.2012 10:00 13,2 C 80 % 0,0 l/m 5,5 km/h (1 Bft) W-NW 292 9,8 C 16,4 C 10,0 km/h (2 Bft)
22.07.2012 10:05 12,7 C 85 % 0,0 l/m 5,1 km/h (1 Bft) W 270 10,2 C 15,0 C 5,5 km/h (1 Bft)
22.07.2012 10:10 12,3 C 85 % 0,0 l/m 5,0 km/h (1 Bft) S-SW 202 9,9 C 14,5 C 6,6 km/h (2 Bft)
22.07.2012 10:15 12,2 C 85 % 0,0 l/m 4,5 km/h (1 Bft) N-NO 22 9,8 C 14,0 C 2,7 km/h (1 Bft)
22.07.2012 10:20 12,3 C 86 % 0,0 l/m 4,0 km/h (1 Bft) W 270 10,0 C 13,9 C 4,5 km/h (1 Bft)
22.07.2012 10:25 12,2 C 84 % 0,0 l/m 2,7 km/h (1 Bft) O 90 9,6 C 14,0 C 0,0 km/h (0 Bft)
22.07.2012 10:30 12,0 C 84 % 0,0 l/m 2,9 km/h (1 Bft) S-SW 202 9,4 C 14,2 C 4,8 km/h (1 Bft)
22.07.2012 10:35 12,6 C 85 % 0,0 l/m 3,2 km/h (1 Bft) W-NW 292 10,1 C 14,2 C 1,6 km/h (1 Bft)
22.07.2012 10:40 12,8 C 83 % 0,0 l/m 3,5 km/h (1 Bft) NW 315 10,0 C 14,6 C 0,0 km/h (0 Bft)
22.07.2012 10:45 14,1 C 82 % 0,0 l/m 3,4 km/h (1 Bft) NW 315 11,1 C 15,6 C 5,3 km/h (1 Bft)
22.07.2012 10:50 15,0 C 76 % 0,0 l/m 3,4 km/h (1 Bft) W-SW 247 10,8 C 16,9 C 7,9 km/h (2 Bft)
22.07.2012 10:55 13,7 C 79 % 0,0 l/m 4,0 km/h (1 Bft) W-SW 247 10,1 C 16,4 C 3,7 km/h (1 Bft)
22.07.2012 11:00 13,5 C 78 % 0,0 l/m 4,0 km/h (1 Bft) W-NW 292 9,7 C 16,0 C 2,7 km/h (1 Bft)
22.07.2012 11:05 14,8 C 82 % 0,0 l/m 2,9 km/h (1 Bft) W-SW 247 11,8 C 16,3 C 3,9 km/h (1 Bft)
22.07.2012 11:10 14,4 C 82 % 0,0 l/m 2,3 km/h (1 Bft) O 90 11,4 C 16,7 C 2,4 km/h (1 Bft)
22.07.2012 11:15 13,6 C 80 % 0,0 l/m 2,1 km/h (1 Bft) S 180 10,2 C 16,4 C 6,6 km/h (2 Bft)
22.07.2012 11:20 13,8 C 81 % 0,0 l/m 2,7 km/h (1 Bft) W 270 10,6 C 16,0 C 5,3 km/h (1 Bft)
22.07.2012 11:25 14,0 C 82 % 0,0 l/m 4,0 km/h (1 Bft) S 180 11,0 C 15,8 C 6,1 km/h (2 Bft)
22.07.2012 11:30 13,6 C 78 % 0,0 l/m 4,2 km/h (1 Bft) NO 45 9,8 C 15,5 C 4,8 km/h (1 Bft)
22.07.2012 11:35 13,8 C 84 % 0,0 l/m 3,9 km/h (1 Bft) SO 135 11,1 C 15,3 C 4,8 km/h (1 Bft)
22.07.2012 11:40 13,7 C 85 % 0,0 l/m 3,5 km/h (1 Bft) SO 135 11,2 C 15,2 C 3,9 km/h (1 Bft)
22.07.2012 11:45 13,4 C 83 % 0,0 l/m 2,6 km/h (1 Bft) W-NW 292 10,6 C 15,0 C 0,0 km/h (0 Bft)
22.07.2012 11:50 13,5 C 82 % 0,0 l/m 1,8 km/h (1 Bft) W 270 10,5 C 15,1 C 5,5 km/h (1 Bft)
22.07.2012 11:55 14,1 C 81 % 0,0 l/m 1,6 km/h (1 Bft) N 360 10,9 C 15,4 C 2,1 km/h (1 Bft)
22.07.2012 12:00 14,3 C 84 % 0,0 l/m 1,6 km/h (1 Bft) S 180 11,6 C 15,9 C 3,9 km/h (1 Bft)
22.07.2012 12:05 14,2 C 81 % 0,0 l/m 2,7 km/h (1 Bft) W 270 11,0 C 16,2 C 5,6 km/h (1 Bft)
22.07.2012 12:10 13,7 C 79 % 0,0 l/m 4,0 km/h (1 Bft) W-SW 247 10,1 C 15,6 C 6,9 km/h (2 Bft)
22.07.2012 12:15 16,1 C 79 % 0,0 l/m 3,5 km/h (1 Bft) N-NW 337 12,5 C 16,9 C 2,3 km/h (1 Bft)
22.07.2012 12:20 15,3 C 74 % 0,0 l/m 3,9 km/h (1 Bft) W-NW 292 10,7 C 17,3 C 5,0 km/h (1 Bft)
22.07.2012 12:25 14,7 C 74 % 0,0 l/m 4,2 km/h (1 Bft) W-SW 247 10,1 C 16,7 C 3,7 km/h (1 Bft)
22.07.2012 12:30 16,3 C 77 % 0,0 l/m 3,2 km/h (1 Bft) NW 315 12,3 C 17,8 C 2,3 km/h (1 Bft)
22.07.2012 12:35 15,4 C 74 % 0,0 l/m 2,6 km/h (1 Bft) W-SW 247 10,8 C 18,5 C 6,1 km/h (2 Bft)
22.07.2012 12:40 14,4 C 71 % 0,0 l/m 3,2 km/h (1 Bft) SO 135 9,2 C 17,3 C 0,0 km/h (0 Bft)
22.07.2012 12:45 15,1 C 65 % 0,0 l/m 4,2 km/h (1 Bft) W-NW 292 8,6 C 16,5 C 7,7 km/h (2 Bft)
22.07.2012 12:50 15,9 C 61 % 0,0 l/m 4,3 km/h (1 Bft) W-NW 292 8,4 C 16,8 C 2,1 km/h (1 Bft)
22.07.2012 12:55 17,1 C 64 % 0,0 l/m 5,5 km/h (1 Bft) W-SW 247 10,2 C 17,9 C 7,2 km/h (2 Bft)
22.07.2012 13:00 18,0 C 63 % 0,0 l/m 5,1 km/h (1 Bft) NW 315 11,0 C 19,1 C 11,4 km/h (2 Bft)
22.07.2012 13:05 16,5 C 60 % 0,0 l/m 4,8 km/h (1 Bft) SW 225 8,7 C 19,5 C 6,8 km/h (2 Bft)
22.07.2012 13:10 15,9 C 59 % 0,0 l/m 4,8 km/h (1 Bft) W 270 7,9 C 19,1 C 4,8 km/h (1 Bft)
22.07.2012 13:15 15,7 C 62 % 0,0 l/m 5,0 km/h (1 Bft) N-NW 337 8,4 C 17,9 C 3,9 km/h (1 Bft)
22.07.2012 13:20 15,6 C 64 % 0,0 l/m 4,8 km/h (1 Bft) NW 315 8,8 C 17,5 C 7,1 km/h (2 Bft)
22.07.2012 13:25 16,4 C 61 % 0,0 l/m 5,0 km/h (1 Bft) SW 225 8,9 C 17,5 C 6,0 km/h (2 Bft)
22.07.2012 13:30 17,7 C 60 % 0,0 l/m 4,8 km/h (1 Bft) NW 315 9,8 C 18,9 C 4,2 km/h (1 Bft)
22.07.2012 13:35 17,5 C 58 % 0,0 l/m 4,8 km/h (1 Bft) W-SW 247 9,1 C 19,3 C 9,8 km/h (2 Bft)
22.07.2012 13:40 16,0 C 60 % 0,0 l/m 5,8 km/h (2 Bft) S 180 8,2 C 18,5 C 7,2 km/h (2 Bft)
22.07.2012 13:45 14,8 C 61 % 0,0 l/m 6,1 km/h (2 Bft) W-NW 292 7,4 C 17,3 C 8,9 km/h (2 Bft)
22.07.2012 13:50 14,9 C 65 % 0,0 l/m 5,1 km/h (1 Bft) W 270 8,4 C 16,7 C 12,6 km/h (3 Bft)
22.07.2012 13:55 14,9 C 63 % 0,0 l/m 4,7 km/h (1 Bft) N-NW 337 7,9 C 16,3 C 6,3 km/h (2 Bft)
22.07.2012 14:00 14,6 C 61 % 0,0 l/m 4,8 km/h (1 Bft) S 180 7,2 C 16,1 C 4,8 km/h (1 Bft)
22.07.2012 14:05 16,0 C 57 % 0,0 l/m 4,8 km/h (1 Bft) S-SW 202 7,5 C 16,5 C 5,0 km/h (1 Bft)
22.07.2012 14:10 16,9 C 53 % 0,0 l/m 5,0 km/h (1 Bft) W 270 7,3 C 17,7 C 4,2 km/h (1 Bft)
22.07.2012 14:15 16,4 C 55 % 0,0 l/m 4,8 km/h (1 Bft) W-NW 292 7,3 C 18,2 C 11,6 km/h (2 Bft)
22.07.2012 14:20 17,1 C 54 % 0,0 l/m 3,9 km/h (1 Bft) N-NW 337 7,7 C 18,4 C 9,8 km/h (2 Bft)
22.07.2012 14:25 17,0 C 52 % 0,0 l/m 4,7 km/h (1 Bft) N 360 7,1 C 19,3 C 4,0 km/h (1 Bft)
22.07.2012 14:30 17,1 C 52 % 0,0 l/m 5,1 km/h (1 Bft) W-NW 292 7,2 C 19,7 C 8,7 km/h (2 Bft)
22.07.2012 14:35 15,3 C 56 % 0,0 l/m 4,5 km/h (1 Bft) N-NW 337 6,6 C 18,0 C 5,3 km/h (1 Bft)
22.07.2012 14:40 15,9 C 56 % 0,0 l/m 5,1 km/h (1 Bft) W-NW 292 7,1 C 17,5 C 5,6 km/h (1 Bft)
22.07.2012 14:45 17,9 C 50 % 0,0 l/m 4,0 km/h (1 Bft) W-SW 247 7,3 C 19,1 C 6,1 km/h (2 Bft)
22.07.2012 14:50 17,8 C 49 % 0,0 l/m 4,7 km/h (1 Bft) W 270 6,9 C 19,6 C 6,0 km/h (2 Bft)
22.07.2012 14:55 17,7 C 50 % 0,0 l/m 6,0 km/h (2 Bft) W 270 7,1 C 20,2 C 7,9 km/h (2 Bft)
22.07.2012 15:00 15,9 C 56 % 0,0 l/m 6,0 km/h (2 Bft) W 270 7,1 C 19,2 C 12,7 km/h (3 Bft)
22.07.2012 15:05 15,1 C 61 % 0,0 l/m 5,1 km/h (1 Bft) N-NW 337 7,6 C 17,2 C 3,9 km/h (1 Bft)
22.07.2012 15:10 15,0 C 59 % 0,0 l/m 4,2 km/h (1 Bft) W 270 7,1 C 16,5 C 3,9 km/h (1 Bft)
22.07.2012 15:15 14,8 C 59 % 0,0 l/m 3,7 km/h (1 Bft) W 270 6,9 C 15,8 C 5,8 km/h (2 Bft)
22.07.2012 15:20 14,6 C 59 % 0,0 l/m 3,4 km/h (1 Bft) N-NO 22 6,7 C 15,5 C 6,1 km/h (2 Bft)
22.07.2012 15:25 14,6 C 59 % 0,0 l/m 3,9 km/h (1 Bft) W-NW 292 6,7 C 15,3 C 6,1 km/h (2 Bft)
22.07.2012 15:30 15,2 C 59 % 0,0 l/m 4,3 km/h (1 Bft) W 270 7,2 C 15,6 C 9,7 km/h (2 Bft)
22.07.2012 15:35 17,4 C 53 % 0,0 l/m 4,0 km/h (1 Bft) N 360 7,7 C 17,9 C 6,6 km/h (2 Bft)
22.07.2012 15:40 17,8 C 49 % 0,0 l/m 5,1 km/h (1 Bft) W-SW 247 6,9 C 19,1 C 8,7 km/h (2 Bft)
22.07.2012 15:45 17,9 C 47 % 0,0 l/m 4,8 km/h (1 Bft) W-NW 292 6,4 C 20,0 C 3,1 km/h (1 Bft)
22.07.2012 15:50 18,5 C 49 % 0,0 l/m 5,0 km/h (1 Bft) N-NW 337 7,6 C 20,9 C 13,0 km/h (3 Bft)
22.07.2012 15:55 16,6 C 53 % 0,0 l/m 6,4 km/h (2 Bft) S-SO 157 7,0 C 20,3 C 11,1 km/h (2 Bft)
22.07.2012 16:00 15,4 C 57 % 0,0 l/m 7,4 km/h (2 Bft) W-SW 247 6,9 C 17,8 C 16,9 km/h (3 Bft)
22.07.2012 16:05 15,1 C 59 % 0,0 l/m 5,5 km/h (1 Bft) NW 315 7,1 C 16,7 C 3,9 km/h (1 Bft)
22.07.2012 16:10 15,1 C 59 % 0,0 l/m 4,3 km/h (1 Bft) W 270 7,1 C 16,1 C 4,3 km/h (1 Bft)
22.07.2012 16:15 17,1 C 58 % 0,0 l/m 4,5 km/h (1 Bft) N-NO 22 8,8 C 16,8 C 8,7 km/h (2 Bft)
22.07.2012 16:20 16,9 C 51 % 0,0 l/m 4,5 km/h (1 Bft) S-SW 202 6,7 C 17,9 C 6,1 km/h (2 Bft)
22.07.2012 16:25 17,3 C 52 % 0,0 l/m 5,3 km/h (1 Bft) W-SW 247 7,3 C 18,8 C 9,7 km/h (2 Bft)
22.07.2012 16:30 17,1 C 49 % 0,0 l/m 5,0 km/h (1 Bft) NW 315 6,3 C 19,1 C 3,7 km/h (1 Bft)
22.07.2012 16:35 17,0 C 50 % 0,0 l/m 5,3 km/h (1 Bft) W-SW 247 6,5 C 19,7 C 4,7 km/h (1 Bft)
22.07.2012 16:40 17,2 C 50 % 0,0 l/m 5,3 km/h (1 Bft) S 180 6,7 C 19,8 C 4,3 km/h (1 Bft)
22.07.2012 16:45 16,8 C 49 % 0,0 l/m 5,1 km/h (1 Bft) W-NW 292 6,0 C 20,5 C 7,7 km/h (2 Bft)
22.07.2012 16:50 17,1 C 48 % 0,0 l/m 4,3 km/h (1 Bft) W-SW 247 6,0 C 21,0 C 7,7 km/h (2 Bft)
22.07.2012 16:55 17,4 C 50 % 0,0 l/m 3,7 km/h (1 Bft) NW 315 6,9 C 21,5 C 4,0 km/h (1 Bft)
22.07.2012 17:00 17,0 C 49 % 0,0 l/m 4,2 km/h (1 Bft) S-SW 202 6,2 C 21,8 C 4,2 km/h (1 Bft)
22.07.2012 17:05 16,3 C 50 % 0,0 l/m 5,0 km/h (1 Bft) SW 225 5,9 C 20,0 C 3,4 km/h (1 Bft)
22.07.2012 17:10 15,6 C 55 % 0,0 l/m 5,0 km/h (1 Bft) W-SW 247 6,6 C 18,9 C 10,3 km/h (2 Bft)
22.07.2012 17:15 15,1 C 57 % 0,0 l/m 4,7 km/h (1 Bft) W-NW 292 6,6 C 17,5 C 4,7 km/h (1 Bft)
22.07.2012 17:20 14,9 C 58 % 0,0 l/m 4,5 km/h (1 Bft) W-NW 292 6,7 C 16,7 C 7,6 km/h (2 Bft)
22.07.2012 17:25 14,5 C 59 % 0,0 l/m 3,9 km/h (1 Bft) S-SO 157 6,6 C 16,0 C 0,0 km/h (0 Bft)
22.07.2012 17:30 14,5 C 60 % 0,0 l/m 3,7 km/h (1 Bft) N 360 6,8 C 15,7 C 3,9 km/h (1 Bft)
22.07.2012 17:35 14,3 C 60 % 0,0 l/m 2,7 km/h (1 Bft) SW 225 6,6 C 15,3 C 1,8 km/h (1 Bft)
22.07.2012 17:40 14,1 C 63 % 0,0 l/m 2,6 km/h (1 Bft) N-NO 22 7,2 C 15,2 C 0,0 km/h (0 Bft)
22.07.2012 17:45 14,2 C 63 % 0,0 l/m 1,4 km/h (1 Bft) N 360 7,3 C 15,7 C 0,0 km/h (0 Bft)
22.07.2012 17:50 14,7 C 63 % 0,0 l/m 1,3 km/h (1 Bft) N 360 7,7 C 16,5 C 1,8 km/h (1 Bft)
22.07.2012 17:55 15,5 C 58 % 0,0 l/m 1,9 km/h (1 Bft) N-NW 337 7,3 C 18,9 C 6,4 km/h (2 Bft)
22.07.2012 18:00 15,9 C 56 % 0,0 l/m 3,1 km/h (1 Bft) O 90 7,1 C 20,0 C 6,8 km/h (2 Bft)
22.07.2012 18:05 15,8 C 56 % 0,0 l/m 5,6 km/h (1 Bft) S-SW 202 7,0 C 20,2 C 7,9 km/h (2 Bft)
22.07.2012 18:10 15,0 C 55 % 0,0 l/m 5,5 km/h (1 Bft) NW 315 6,0 C 19,0 C 9,7 km/h (2 Bft)
22.07.2012 18:15 14,4 C 57 % 0,0 l/m 4,7 km/h (1 Bft) W-NW 292 6,0 C 16,9 C 8,2 km/h (2 Bft)
22.07.2012 18:20 14,3 C 58 % 0,0 l/m 4,8 km/h (1 Bft) W-NW 292 6,2 C 16,1 C 4,5 km/h (1 Bft)
22.07.2012 18:25 14,1 C 59 % 0,0 l/m 3,4 km/h (1 Bft) NW 315 6,2 C 15,4 C 3,4 km/h (1 Bft)
22.07.2012 18:30 14,1 C 59 % 0,0 l/m 2,6 km/h (1 Bft) N-NW 337 6,2 C 15,2 C 1,9 km/h (1 Bft)
22.07.2012 18:35 14,8 C 59 % 0,0 l/m 1,4 km/h (1 Bft) N-NW 337 6,9 C 16,8 C 2,3 km/h (1 Bft)
22.07.2012 18:40 15,1 C 58 % 0,0 l/m 1,6 km/h (1 Bft) NW 315 6,9 C 18,3 C 6,4 km/h (2 Bft)
22.07.2012 18:45 15,1 C 57 % 0,0 l/m 2,7 km/h (1 Bft) SW 225 6,6 C 19,4 C 6,4 km/h (2 Bft)
22.07.2012 18:50 15,1 C 57 % 0,0 l/m 3,9 km/h (1 Bft) SW 225 6,6 C 19,4 C 6,0 km/h (2 Bft)
22.07.2012 18:55 14,7 C 58 % 0,0 l/m 4,0 km/h (1 Bft) SW 225 6,5 C 18,8 C 2,7 km/h (1 Bft)
22.07.2012 19:00 14,5 C 59 % 0,0 l/m 3,4 km/h (1 Bft) S 180 6,6 C 17,7 C 3,2 km/h (1 Bft)
22.07.2012 19:05 14,0 C 60 % 0,0 l/m 2,4 km/h (1 Bft) W-SW 247 6,4 C 16,3 C 0,0 km/h (0 Bft)
22.07.2012 19:10 13,8 C 62 % 0,0 l/m 1,8 km/h (1 Bft) W-NW 292 6,6 C 15,7 C 0,0 km/h (0 Bft)
22.07.2012 19:15 13,5 C 64 % 0,0 l/m 0,6 km/h (0 Bft) NO 45 6,8 C 15,1 C 0,0 km/h (0 Bft)
22.07.2012 19:20 13,3 C 63 % 0,0 l/m 0,3 km/h (0 Bft) O-NO 67 6,4 C 14,8 C 0,0 km/h (0 Bft)
22.07.2012 19:25 13,0 C 63 % 0,0 l/m 0,5 km/h (0 Bft) N 360 6,1 C 14,2 C 0,0 km/h (0 Bft)
22.07.2012 19:30 12,9 C 65 % 0,0 l/m 0,8 km/h (0 Bft) NO 45 6,5 C 14,0 C 2,7 km/h (1 Bft)
22.07.2012 19:35 12,6 C 66 % 0,0 l/m 0,8 km/h (0 Bft) NO 45 6,4 C 13,5 C 0,0 km/h (0 Bft)
22.07.2012 19:40 12,5 C 66 % 0,0 l/m 0,8 km/h (0 Bft) NO 45 6,3 C 13,2 C 0,0 km/h (0 Bft)
22.07.2012 19:45 12,9 C 66 % 0,0 l/m 0,6 km/h (0 Bft) N 360 6,7 C 14,2 C 2,3 km/h (1 Bft)
22.07.2012 19:50 12,9 C 67 % 0,0 l/m 0,6 km/h (0 Bft) N 360 6,9 C 15,3 C 0,0 km/h (0 Bft)
22.07.2012 19:55 13,0 C 66 % 0,0 l/m 0,8 km/h (0 Bft) W-NW 292 6,8 C 16,3 C 1,9 km/h (1 Bft)
22.07.2012 20:00 12,9 C 67 % 0,0 l/m 1,0 km/h (0 Bft) NO 45 6,9 C 16,5 C 0,0 km/h (0 Bft)
22.07.2012 20:05 12,9 C 67 % 0,0 l/m 1,3 km/h (1 Bft) O 90 6,9 C 16,6 C 0,0 km/h (0 Bft)
22.07.2012 20:10 12,8 C 67 % 0,0 l/m 1,0 km/h (0 Bft) N-NW 337 6,8 C 16,5 C 2,4 km/h (1 Bft)
22.07.2012 20:15 12,7 C 67 % 0,0 l/m 0,8 km/h (0 Bft) N 360 6,7 C 16,3 C 2,4 km/h (1 Bft)
22.07.2012 20:20 12,6 C 67 % 0,0 l/m 1,1 km/h (1 Bft) NO 45 6,6 C 16,1 C 0,0 km/h (0 Bft)
22.07.2012 20:25 12,3 C 67 % 0,0 l/m 0,6 km/h (0 Bft) N-NO 22 6,4 C 15,7 C 0,0 km/h (0 Bft)
22.07.2012 20:30 12,2 C 68 % 0,0 l/m 0,2 km/h (0 Bft) N 360 6,5 C 15,4 C 0,0 km/h (0 Bft)
22.07.2012 20:35 11,9 C 68 % 0,0 l/m 0,3 km/h (0 Bft) N 360 6,2 C 14,6 C 0,0 km/h (0 Bft)
22.07.2012 20:40 11,7 C 68 % 0,0 l/m 0,5 km/h (0 Bft) N 360 6,0 C 13,9 C 0,0 km/h (0 Bft)
22.07.2012 20:45 11,3 C 69 % 0,0 l/m 0,3 km/h (0 Bft) N-NW 337 5,8 C 13,3 C 0,0 km/h (0 Bft)
22.07.2012 20:50 11,2 C 69 % 0,0 l/m 0,3 km/h (0 Bft) N-NW 337 5,7 C 12,8 C 0,0 km/h (0 Bft)
22.07.2012 20:55 10,9 C 71 % 0,0 l/m 0,0 km/h (0 Bft) NO 45 5,9 C 11,9 C 0,0 km/h (0 Bft)
22.07.2012 21:00 10,7 C 71 % 0,0 l/m 0,0 km/h (0 Bft) N-NO 22 5,7 C 11,2 C 0,0 km/h (0 Bft)
22.07.2012 21:05 10,3 C 73 % 0,0 l/m 0,0 km/h (0 Bft) O 90 5,7 C 10,4 C 0,0 km/h (0 Bft)
22.07.2012 21:10 9,7 C 74 % 0,0 l/m 0,0 km/h (0 Bft) S 180 5,3 C 10,0 C 0,0 km/h (0 Bft)
22.07.2012 21:15 9,4 C 76 % 0,0 l/m 0,0 km/h (0 Bft) N 360 5,4 C 9,1 C 0,0 km/h (0 Bft)
22.07.2012 21:20 9,3 C 77 % 0,0 l/m 0,0 km/h (0 Bft) N-NO 22 5,5 C 8,9 C 1,8 km/h (1 Bft)
22.07.2012 21:25 9,1 C 79 % 0,0 l/m 0,0 km/h (0 Bft) NO 45 5,7 C 8,7 C 0,0 km/h (0 Bft)
22.07.2012 21:30 8,9 C 80 % 0,0 l/m 0,0 km/h (0 Bft) N 360 5,6 C 8,5 C 0,0 km/h (0 Bft)
22.07.2012 21:35 8,7 C 81 % 0,0 l/m 0,0 km/h (0 Bft) NO 45 5,6 C 8,4 C 0,0 km/h (0 Bft)
22.07.2012 21:40 8,6 C 81 % 0,0 l/m 0,0 km/h (0 Bft) N-NW 337 5,5 C 8,2 C 0,0 km/h (0 Bft)
22.07.2012 21:45 8,6 C 82 % 0,0 l/m 0,2 km/h (0 Bft) N 360 5,7 C 7,9 C 0,0 km/h (0 Bft)
22.07.2012 21:50 8,5 C 82 % 0,0 l/m 0,2 km/h (0 Bft) N-NO 22 5,6 C 7,7 C 0,0 km/h (0 Bft)
22.07.2012 21:55 8,6 C 83 % 0,0 l/m 0,5 km/h (0 Bft) SO 135 5,9 C 7,6 C 0,0 km/h (0 Bft)
22.07.2012 22:00 8,3 C 82 % 0,0 l/m 0,5 km/h (0 Bft) N 360 5,4 C 7,4 C 0,0 km/h (0 Bft)
22.07.2012 22:05 8,5 C 83 % 0,0 l/m 0,0 km/h (0 Bft) W-NW 292 5,8 C 7,4 C 0,0 km/h (0 Bft)
22.07.2012 22:10 8,5 C 83 % 0,0 l/m 0,2 km/h (0 Bft) NO 45 5,8 C 7,5 C 0,0 km/h (0 Bft)
22.07.2012 22:15 8,5 C 83 % 0,0 l/m 0,2 km/h (0 Bft) N-NO 22 5,8 C 7,6 C 0,0 km/h (0 Bft)
22.07.2012 22:20 8,8 C 83 % 0,0 l/m 0,0 km/h (0 Bft) N 360 6,1 C 7,7 C 1,6 km/h (1 Bft)
22.07.2012 22:25 8,8 C 83 % 0,0 l/m 0,2 km/h (0 Bft) SO 135 6,1 C 7,9 C 0,0 km/h (0 Bft)
22.07.2012 22:30 8,6 C 83 % 0,0 l/m 0,2 km/h (0 Bft) SO 135 5,9 C 7,9 C 0,0 km/h (0 Bft)
22.07.2012 22:35 8,3 C 83 % 0,0 l/m 0,0 km/h (0 Bft) N 360 5,6 C 7,8 C 0,0 km/h (0 Bft)
22.07.2012 22:40 8,7 C 84 % 0,0 l/m 0,0 km/h (0 Bft) N-NO 22 6,2 C 7,8 C 0,0 km/h (0 Bft)
22.07.2012 22:45 8,6 C 84 % 0,0 l/m 0,0 km/h (0 Bft) NO 45 6,1 C 7,9 C 1,8 km/h (1 Bft)
22.07.2012 22:50 8,2 C 84 % 0,0 l/m 0,0 km/h (0 Bft) N-NW 337 5,7 C 7,8 C 0,0 km/h (0 Bft)
22.07.2012 22:55 7,6 C 84 % 0,0 l/m 0,0 km/h (0 Bft) NO 45 5,1 C 7,2 C 0,0 km/h (0 Bft)
22.07.2012 23:00 7,6 C 85 % 0,0 l/m 0,2 km/h (0 Bft) N-NW 337 5,2 C 7,0 C 0,0 km/h (0 Bft)
22.07.2012 23:05 7,4 C 86 % 0,0 l/m 0,2 km/h (0 Bft) N 360 5,2 C 6,7 C 0,0 km/h (0 Bft)
22.07.2012 23:10 7,4 C 86 % 0,0 l/m 0,2 km/h (0 Bft) N 360 5,2 C 6,5 C 1,8 km/h (1 Bft)
22.07.2012 23:15 7,5 C 86 % 0,0 l/m 0,2 km/h (0 Bft) N 360 5,3 C 6,4 C 0,0 km/h (0 Bft)
22.07.2012 23:20 7,3 C 86 % 0,0 l/m 0,2 km/h (0 Bft) N 360 5,1 C 6,4 C 0,0 km/h (0 Bft)
22.07.2012 23:25 7,1 C 86 % 0,0 l/m 0,0 km/h (0 Bft) N-NO 22 4,9 C 6,3 C 0,0 km/h (0 Bft)
22.07.2012 23:30 7,3 C 86 % 0,0 l/m 0,0 km/h (0 Bft) NO 45 5,1 C 6,3 C 0,0 km/h (0 Bft)
22.07.2012 23:35 7,1 C 86 % 0,0 l/m 0,0 km/h (0 Bft) S-SO 157 4,9 C 6,1 C 0,0 km/h (0 Bft)
22.07.2012 23:40 6,6 C 86 % 0,0 l/m 0,0 km/h (0 Bft) N-NO 22 4,4 C 6,0 C 0,0 km/h (0 Bft)
22.07.2012 23:45 6,4 C 86 % 0,0 l/m 0,0 km/h (0 Bft) N-NW 337 4,2 C 5,8 C 0,0 km/h (0 Bft)
22.07.2012 23:50 6,3 C 87 % 0,0 l/m 0,0 km/h (0 Bft) S 180 4,3 C 5,7 C 0,0 km/h (0 Bft)
22.07.2012 23:55 6,1 C 87 % 0,0 l/m 0,0 km/h (0 Bft) N-NO 22 4,1 C 5,5 C 0,0 km/h (0 Bft)
_ Min-Zeit 23:55 15:45 - 23:55 - - 23:55 23:55 23:55
Minimum _ 6,1 C 47 % - 0,0 km/h (0 Bft) - - 4,1 C 5,5 C 0,0 km/h (0 Bft)
_ Max-Zeit 15:50 08:45 06:50 16:00 - - 09:50 17:00 16:00
Maximum _ 18,5 C 96 % 0,7 l/m 7,4 km/h
W-SW (2 Bft)
- - 12,7 C 21,8 C 16,9 km/h
W-SW (3 Bft)
Durchschnitt _ 11,8 C 80 % #0,7 l/m 1,9 km/h (1 Bft) W - 8,1 C 12,8 C 2,6 km/h (1 Bft)